• Join FlightAware (Why Join?)
  • Login
  • US Flag 
10:36AM EDT


 

Airport Tracker/Info


-or-


 

Live Flight TrackerFlight Track Log ✈ N682RW ✈ 17-Jul-2013 ✈ KEWR - KDTW

Flight Track Log - Related Links

Times and Time Zones

All times are in EDT time to prevent confusion due to time zone crossing. See the N682RW flight status page for this flight to view local times or setup timezone preferences in your user account.

Time Position Orientation Groundspeed Altitude Reporting Facility
EDT Latitude Longitude Course Direction KTS MPH feet Rate Location/Type
02:12AM 40.7000 -74.1667 13° North 170 196 700  Level New York TRACON
02:14AM 40.8306 -74.1278 13° North 240 276 8,000 3,120 Climbing New York Center
02:15AM 40.9211 -74.1653 343° North 288 331 11,300 2,940 Climbing New York Center
02:16AM 41.0097 -74.2056 341° North 318 366 14,100 2,640 Climbing New York Center
02:17AM 41.0961 -74.2375 344° North 349 402 16,600 2,640 Climbing New York Center
02:18AM 41.2136 -74.2819 344° North 373 429 19,400 2,580 Climbing New York Center
02:19AM 41.3167 -74.3150 346° North 380 437 21,800 2,280 Climbing New York Center
02:20AM 41.4206 -74.3925 331° Northwest 399 459 24,000 2,040 Climbing New York Center
02:21AM 41.4639 -74.5361 292° West 393 452 25,900 1,740 Climbing New York Center
02:22AM 41.4947 -74.6789 286° West 412 474 27,500 1,560 Climbing New York Center
02:23AM 41.5308 -74.8417 287° West 437 503 29,100 1,620 Climbing New York Center
02:24AM 41.5669 -75.0019 287° West 452 520 30,900 1,680 Climbing New York Center
02:25AM 41.6047 -75.1653 287° West 457 526 32,500 1,380 Climbing New York Center
02:26AM 41.6403 -75.3286 286° West 457 526 33,700 720 Climbing New York Center
02:27AM 41.6753 -75.4947 286° West 463 533 34,000 120 Climbing New York Center
02:28AM 41.7122 -75.6614 287° West 463 533 34,000  Level New York Center
02:29AM 41.7472 -75.8225 286° West 463 533 34,000  Level New York Center
02:30AM 41.7817 -75.9864 286° West 463 533 34,000  Level New York Center
02:31AM 41.8181 -76.1506 287° West 463 533 34,000  Level New York Center
02:32AM 41.8503 -76.3147 285° West 463 533 34,000  Level New York Center
02:33AM 41.8842 -76.4764 286° West 464 534 34,000  Level New York Center
02:34AM 41.9197 -76.6439 286° West 464 534 34,000  Level New York Center
02:35AM 41.9533 -76.8058 286° West 464 534 34,000  Level New York Center
02:36AM 41.9867 -76.9681 286° West 459 528 34,000  Level New York Center
02:37AM 42.0175 -77.1328 284° West 459 528 34,000  Level New York Center
02:38AM 42.0503 -77.2953 285° West 459 528 34,000  Level New York Center
02:39AM 42.0872 -77.4581 287° West 459 528 34,000  Level New York Center
02:40AM 42.1269 -77.6356 287° West 464 534 34,000  Level New York Center
02:41AM 42.1653 -77.8019 287° West 464 534 34,000  Level New York Center
02:43AM 42.1932 -77.9553 284° West  Level FlightAware Approximate
02:50AM 42.3715 -78.9651 284° West  Level FlightAware Approximate
02:51AM 42.3962 -79.1098 283° West  Level FlightAware Approximate
02:52AM 42.4208 -79.2546 283° West  Level FlightAware Approximate
02:53AM 42.4451 -79.3996 283° West  Level FlightAware Approximate
02:54AM 42.4693 -79.5446 283° West  Level FlightAware Approximate
02:55AM 42.4933 -79.6898 283° West  Level FlightAware Approximate
02:56AM 42.5172 -79.8351 283° West  Level FlightAware Approximate
02:57AM 42.5408 -79.9805 282° West  Level FlightAware Approximate
02:58AM 42.5643 -80.1260 282° West  Level FlightAware Approximate
02:59AM 42.5876 -80.2716 282° West  Level FlightAware Approximate
03:00AM 42.6098 -80.4182 281° West  Level FlightAware Approximate
03:01AM 42.6432 -80.5596 291° West  Level FlightAware Approximate
03:02AM 42.6674 -80.7048 281° West  Level FlightAware Approximate
03:03AM 42.6917 -80.8501 289° West  Level FlightAware Approximate
03:04AM 42.6902 -80.9964 260° West  Level FlightAware Approximate
03:05AM 42.6718 -81.1436 260° West  Level FlightAware Approximate
03:06AM 42.6533 -81.2906 260° West  Level FlightAware Approximate
03:07AM 42.6297 -81.4361 262° West  Level FlightAware Approximate
03:08AM 42.6151 -81.5838 263° West  Level FlightAware Approximate
03:09AM 42.6017 -81.7318 263° West  Level FlightAware Approximate
03:10AM 42.5853 -81.8791 261° West  Level FlightAware Approximate
03:11AM 42.5683 -82.0263 261° West  Level FlightAware Approximate
03:12AM 42.5512 -82.1735 261° West  Level FlightAware Approximate
03:13AM 42.5275 -82.3188 257° West  Level FlightAware Approximate
03:14AM 42.5085 -82.4651 260° West  Level FlightAware Approximate
03:15AM 42.4803 -82.6082 243° Southwest  Level FlightAware Approximate
03:16AM 42.4299 -82.7403 236° Southwest  Level FlightAware Approximate
03:17AM 42.3825 -82.8693 246° West  Level FlightAware Approximate
03:18AM 42.3373 -83.0046 246° West  Level FlightAware Approximate
03:19AM 42.2834 -83.1332 246° West  Level FlightAware Approximate
03:20AM 42.2390 -83.2665 246° West  Level FlightAware Approximate
03:21AM 42.2000 -83.3500 236° Southwest  Level FlightAware Approximate
03:22AM 42.2124 -83.3534 236° Southwest  Level Estimated
03:23AM 42.2124 -83.3534 236° Southwest  Level Estimated
03:24AM 42.2124 -83.3534 236° Southwest  Level Estimated
03:25AM 42.2124 -83.3534 236° Southwest  Level Estimated
03:26AM 42.2124 -83.3534 236° Southwest  Level Estimated
03:27AM 42.2124 -83.3534 236° Southwest  Level Estimated
03:28AM 42.2124 -83.3534 236° Southwest  Level Estimated
03:29AM 42.2124 -83.3534 236° Southwest  Level Estimated
03:30AM 42.2124 -83.3534 236° Southwest  Level Estimated
03:31AM 42.2124 -83.3534 236° Southwest  Level Estimated
03:32AM 42.2124 -83.3534 236° Southwest  Level Estimated
03:33AM 42.2124 -83.3534 236° Southwest  Level Estimated
03:34AM 42.2124 -83.3534 236° Southwest  Level Estimated
03:35AM 42.2124 -83.3534 236° Southwest  Level Estimated
03:36AM 42.2124 -83.3534 236° Southwest  Level Estimated
03:37AM 42.2124 -83.3534 236° Southwest  Level Estimated
03:38AM 42.2124 -83.3534 236° Southwest  Level Estimated